Latest Weather Observations for Thargomindah

IDQ60801

Issued at 10:02 am EST Friday 29 April 2016 (issued every 30 minutes, with the page automatically refreshed every 10 minutes)

About weather observations | Map of weather stations | Latest weather observations for QLD | Other Formats
Station Details ID: 045025 Name: THARGOMINDAH AIRPORT Lat: -27.99 Lon: 143.81 Height: 130.89 m
Data from the previous 72 hours. | See also: Recent months at Thargomindah
Date/Time
EST
Temp
°C
App
Temp
°C
Dew
Point
Rel
Hum
%
Delta-T
°C
Wind Press
QNH
hPa
Press
MSL
hPa
Rain
since 9 am
mm
Dir
 
Spd
km/h
Gust
km/h
Spd
kts
Gust
kts
29/10:00am 28.0 24.0 15.3 46 7.8 N 30 39 16 21 1018.3 - 0.0
29/09:30am 26.9 23.0 14.3 46 7.6 N 28 35 15 19 1018.4 - 0.0
29/09:00am 26.4 22.1 14.5 48 7.1 N 30 37 16 20 1018.4 1017.8 0.0
29/08:30am 25.5 22.1 13.7 48 7.0 N 24 32 13 17 1018.2 - 0.0
29/08:00am 24.9 21.7 13.1 48 6.9 NNE 22 28 12 15 1018.1 - 0.0
29/07:30am 24.0 22.3 12.3 48 6.7 NNE 13 19 7 10 1017.8 - 0.0
29/07:00am 22.8 21.5 11.2 48 6.5 NNE 9 13 5 7 1017.4 - 0.0
29/06:30am 23.0 21.3 11.1 47 6.7 NNE 11 13 6 7 1017.2 - 0.0
29/06:00am 23.1 21.4 11.2 47 6.7 NNE 11 15 6 8 1017.0 1016.4 0.0
29/05:30am 22.7 20.5 10.8 47 6.6 NE 13 15 7 8 1016.7 - 0.0
29/05:00am 23.2 21.4 10.9 46 6.9 NNE 11 13 6 7 1016.8 - 0.0
29/04:30am 23.2 21.4 10.9 46 6.9 NE 11 13 6 7 1016.4 - 0.0
29/04:00am 23.6 21.8 11.0 45 7.1 NE 11 15 6 8 1016.5 - 0.0
29/03:30am 24.0 21.9 11.0 44 7.3 NE 13 15 7 8 1016.4 - 0.0
29/03:00am 24.2 22.1 11.2 44 7.3 NE 13 17 7 9 1016.3 1015.6 0.0
29/02:30am 24.7 22.3 11.3 43 7.6 NE 15 20 8 11 1016.5 - 0.0
29/02:00am 24.9 22.6 11.8 44 7.5 NE 15 20 8 11 1016.5 - 0.0
29/01:30am 24.4 23.1 12.4 47 6.9 NE 11 13 6 7 1016.7 - 0.0
29/01:00am 24.6 23.3 12.5 46 7.0 ENE 11 13 6 7 1016.7 - 0.0
29/12:30am 24.6 23.3 12.5 46 7.0 ENE 11 13 6 7 1016.9 - 0.0
29/12:00am 25.1 23.7 12.3 45 7.4 ENE 11 13 6 7 1017.1 1016.4 0.0
 
Date/Time
EST
Temp
°C
App
Temp
°C
Dew
Point
Rel
Hum
%
Delta-T
°C
Wind Press
QNH
hPa
Press
MSL
hPa
Rain
since 9 am
mm
Dir
 
Spd
km/h
Gust
km/h
Spd
kts
Gust
kts
28/11:30pm 25.7 24.4 12.5 44 7.7 ENE 11 15 6 8 1017.3 - 0.0
28/11:00pm 25.7 24.7 12.2 43 7.8 ENE 9 11 5 6 1017.7 - 0.0
28/10:30pm 26.5 25.5 12.2 41 8.3 NE 9 13 5 7 1017.7 - 0.0
28/10:00pm 26.8 25.7 12.1 40 8.5 NE 9 11 5 6 1017.8 - 0.0
28/09:30pm 26.9 25.8 11.8 39 8.7 E 9 11 5 6 1017.7 - 0.0
28/09:00pm 27.4 25.9 11.8 38 9.0 ENE 11 15 6 8 1017.5 1016.8 0.0
28/08:30pm 28.1 25.9 12.0 36 9.4 ENE 15 19 8 10 1017.7 - 0.0
28/08:00pm 28.2 24.9 10.9 34 9.9 ENE 19 28 10 15 1017.3 - 0.0
28/07:30pm 27.9 26.4 10.6 34 9.8 E 9 9 5 5 1016.9 - 0.0
28/07:00pm 28.7 26.9 10.8 33 10.2 E 11 15 6 8 1016.8 - 0.0
28/06:30pm 29.4 27.1 10.5 31 10.8 E 13 19 7 10 1016.6 - 0.0
28/06:00pm 30.0 27.2 10.0 29 11.4 E 15 20 8 11 1016.0 1015.4 0.0
28/05:30pm 31.0 28.9 9.8 27 12.1 ENE 11 15 6 8 1016.1 - 0.0
28/05:00pm 31.1 29.0 9.9 27 12.1 ENE 11 15 6 8 1016.1 - 0.0
28/04:30pm 31.9 30.6 10.0 26 12.6 NE 7 13 4 7 1016.1 - 0.0
28/04:00pm 31.8 29.4 9.9 26 12.5 NNE 13 20 7 11 1016.2 - 0.0
28/03:30pm 32.2 29.9 10.3 26 12.6 NE 13 17 7 9 1016.4 - 0.0
28/03:00pm 32.6 31.5 10.6 26 12.8 WNW 7 15 4 8 1016.7 1015.9 0.0
28/02:30pm 31.5 30.5 10.2 27 12.2 N 6 9 3 5 1016.9 - 0.0
28/02:00pm 31.2 29.8 9.4 26 12.3 NNE 7 11 4 6 1016.9 - 0.0
28/01:30pm 31.2 30.1 10.5 28 11.9 WSW 7 11 4 6 1017.3 - 0.0
28/01:00pm 31.1 29.4 9.9 27 12.1 NNW 9 15 5 8 1017.9 - 0.0
28/12:30pm 31.0 28.7 10.4 28 11.8 NW 13 20 7 11 1018.4 - 0.0
28/12:00pm 30.8 27.8 10.7 29 11.6 N 17 28 9 15 1018.7 1018.0 0.0
28/11:30am 30.5 27.6 11.0 30 11.3 N 17 32 9 17 1019.3 - 0.0
28/11:00am 29.1 26.1 10.7 32 10.5 N 17 24 9 13 1019.6 - 0.0
28/10:30am 28.3 24.8 10.9 34 10.0 NNE 20 28 11 15 1019.8 - 0.0
28/10:00am 27.0 23.6 11.1 37 9.1 NNE 20 28 11 15 1019.9 - 0.0
28/09:30am 26.4 22.5 10.9 38 8.8 NNE 22 28 12 15 1019.9 - 0.0
28/09:00am 26.2 23.4 11.2 39 8.5 NE 17 20 9 11 1020.1 1019.5 0.0
28/08:30am 24.2 21.2 10.8 43 7.5 NE 17 28 9 15 1019.7 - 0.0
28/08:00am 22.7 20.8 10.5 46 6.7 ENE 11 15 6 8 1019.4 - 0.0
28/07:30am 21.4 19.4 10.3 49 6.1 ENE 11 17 6 9 1019.0 - 0.0
28/07:00am 20.7 19.1 10.2 51 5.7 E 9 11 5 6 1018.8 - 0.0
28/06:30am 20.7 19.0 9.9 50 5.8 E 9 11 5 6 1018.3 - 0.0
28/06:00am 21.3 19.3 10.2 49 6.0 E 11 15 6 8 1018.1 1017.4 0.0
28/05:30am 20.6 18.5 9.8 50 5.8 E 11 13 6 7 1018.1 - 0.0
28/05:00am 20.9 19.2 9.8 49 6.0 E 9 11 5 6 1018.1 - 0.0
28/04:30am 20.9 18.7 9.5 48 6.1 E 11 13 6 7 1018.1 - 0.0
28/04:00am 21.1 19.3 9.4 47 6.3 E 9 11 5 6 1017.9 - 0.0
28/03:30am 21.8 19.6 9.3 45 6.7 E 11 13 6 7 1018.0 - 0.0
28/03:00am 22.2 20.0 9.4 44 6.9 E 11 13 6 7 1018.1 1017.3 0.0
28/02:30am 22.5 20.7 9.3 43 7.1 E 9 11 5 6 1018.3 - 0.0
28/02:00am 23.2 21.3 9.2 41 7.6 E 9 11 5 6 1018.4 - 0.0
28/01:30am 23.7 21.5 9.3 40 7.8 ENE 11 13 6 7 1018.4 - 0.0
28/01:00am 24.4 21.8 9.2 38 8.3 E 13 15 7 8 1018.1 - 0.0
28/12:30am 24.7 22.0 9.0 37 8.5 ENE 13 15 7 8 1018.3 - 0.0
28/12:00am 24.9 21.8 8.8 36 8.7 ENE 15 20 8 11 1018.2 1017.5 0.0
 
Date/Time
EST
Temp
°C
App
Temp
°C
Dew
Point
Rel
Hum
%
Delta-T
°C
Wind Press
QNH
hPa
Press
MSL
hPa
Rain
since 9 am
mm
Dir
 
Spd
km/h
Gust
km/h
Spd
kts
Gust
kts
27/11:30pm 25.4 21.8 8.4 34 9.2 ENE 17 22 9 12 1018.1 - 0.0
27/11:00pm 25.8 22.2 8.3 33 9.5 ENE 17 22 9 12 1018.4 - 0.0
27/10:30pm 25.7 22.3 7.8 32 9.6 E 15 20 8 11 1018.5 - 0.0
27/10:00pm 25.3 22.2 7.4 32 9.5 E 13 17 7 9 1018.7 - 0.0
27/09:30pm 25.6 22.2 7.7 32 9.6 E 15 17 8 9 1018.9 - 0.0
27/09:00pm 24.5 22.2 7.6 34 8.9 ESE 9 11 5 6 1018.9 1018.1 0.0
27/08:30pm 24.8 23.0 7.9 34 9.0 ESE 7 9 4 5 1018.8 - 0.0
27/08:00pm 24.6 22.6 6.4 31 9.4 ESE 6 7 3 4 1018.9 - 0.0
27/07:30pm 25.5 23.6 6.7 30 9.9 ESE 6 7 3 4 1018.7 - 0.0
27/07:00pm 26.7 24.9 7.2 29 10.4 SSE 6 7 3 4 1018.3 - 0.0
27/06:30pm 27.7 26.0 7.5 28 10.9 SE 6 9 3 5 1018.0 - 0.0
27/06:00pm 28.0 27.2 6.7 26 11.3 CALM 0 0 0 0 1017.7 1017.0 0.0
27/05:30pm 28.9 27.0 6.9 25 11.8 NE 6 9 3 5 1017.6 - 0.0
27/05:00pm 29.4 26.9 6.7 24 12.2 NE 9 13 5 7 1017.5 - 0.0
27/04:30pm 29.5 26.8 7.4 25 12.0 E 11 15 6 8 1017.4 - 0.0
27/04:00pm 29.8 27.9 7.7 25 12.1 S 7 11 4 6 1017.4 - 0.0
27/03:30pm 29.7 27.5 6.4 23 12.5 NNE 7 11 4 6 1017.6 - 0.0
27/03:00pm 30.2 28.3 7.4 24 12.4 N 7 15 4 8 1017.6 1017.0 0.0
27/02:30pm 30.2 26.8 6.1 22 12.9 NW 13 20 7 11 1017.9 - 0.0
27/02:00pm 30.2 27.7 8.0 25 12.2 NNE 11 22 6 12 1018.0 - 0.0
27/01:30pm 30.1 27.4 7.3 24 12.4 NW 11 20 6 11 1018.4 - 0.0
27/01:00pm 29.3 25.1 8.4 27 11.5 N 20 26 11 14 1018.8 - 0.0
27/12:30pm 29.3 25.6 9.4 29 11.2 NE 19 26 10 14 1019.4 - 0.0
27/12:00pm 29.0 25.7 9.7 30 10.8 N 17 28 9 15 1019.7 1019.1 0.0
27/11:30am 28.2 24.3 9.5 31 10.4 N 20 30 11 16 1020.0 - 0.0
27/11:00am 27.1 22.7 9.0 32 10.0 NE 22 30 12 16 1020.5 - 0.0
27/10:30am 26.6 22.2 9.0 33 9.7 NNE 22 32 12 17 1020.9 - 0.0
27/10:00am 25.4 20.2 8.8 35 9.0 NE 26 32 14 17 1021.2 - 0.0
27/09:30am 24.2 19.7 8.6 37 8.4 NE 22 28 12 15 1021.4 - 0.0
27/09:03am - - - - - - - - - - - - -
27/09:00am 23.3 19.2 8.6 39 7.9 NE 20 28 11 15 1021.3 1020.7 0.0
27/08:30am 22.0 18.1 8.5 42 7.2 NE 19 28 10 15 1021.2 - 0.0
27/08:00am 20.9 17.6 7.9 43 6.8 ENE 15 22 8 12 1021.0 - 0.0
27/07:30am 19.2 16.1 7.3 46 6.1 ENE 13 17 7 9 1020.8 - 0.0
27/07:00am 18.1 15.3 6.9 48 5.6 E 11 15 6 8 1020.4 - 0.0
27/06:30am 17.6 14.3 6.5 48 5.5 E 13 15 7 8 1020.1 - 0.0
27/06:00am 17.3 14.7 5.9 47 5.6 E 9 11 5 6 1020.2 1019.5 0.0
27/05:30am 17.6 15.0 5.9 46 5.7 E 9 11 5 6 1020.1 - 0.0
27/05:00am 18.1 15.5 6.0 45 6.0 E 9 11 5 6 1020.0 - 0.0
27/04:30am 18.5 15.8 5.7 43 6.3 E 9 13 5 7 1019.8 - 0.0
27/04:00am 18.6 15.5 5.5 42 6.4 E 11 13 6 7 1019.8 - 0.0
27/03:30am 18.9 15.8 5.4 41 6.6 E 11 13 6 7 1019.9 - 0.0
27/03:00am 19.1 15.9 5.2 40 6.8 E 11 13 6 7 1020.1 1019.4 0.0
27/02:30am 19.4 16.6 5.1 39 7.0 ESE 9 13 5 7 1020.3 - 0.0
27/02:00am 19.7 16.5 5.0 38 7.2 E 11 15 6 8 1020.2 - 0.0
27/01:30am 20.0 16.8 4.9 37 7.4 E 11 15 6 8 1020.4 - 0.0
27/01:00am 20.2 16.9 4.7 36 7.6 E 11 13 6 7 1020.7 - 0.0
27/12:30am 20.8 17.5 4.8 35 7.9 E 11 15 6 8 1020.7 - 0.0
27/12:00am 20.9 17.2 4.5 34 8.0 E 13 15 7 8 1020.8 1020.1 0.0
 
Date/Time
EST
Temp
°C
App
Temp
°C
Dew
Point
Rel
Hum
%
Delta-T
°C
Wind Press
QNH
hPa
Press
MSL
hPa
Rain
since 9 am
mm
Dir
 
Spd
km/h
Gust
km/h
Spd
kts
Gust
kts
26/11:30pm 21.2 17.5 4.7 34 8.1 E 13 17 7 9 1020.9 - 0.0
26/11:00pm 21.5 18.2 4.6 33 8.3 E 11 13 6 7 1021.3 - 0.0
26/10:30pm 22.3 18.7 4.8 32 8.7 E 13 19 7 10 1021.3 - 0.0
26/10:00pm 22.3 18.7 4.8 32 8.7 E 13 17 7 9 1021.3 - 0.0
26/09:30pm 22.6 18.9 4.6 31 8.9 E 13 17 7 9 1021.3 - 0.0
26/09:00pm 22.6 19.3 4.6 31 8.9 E 11 13 6 7 1021.3 1020.7 0.0
26/08:30pm 23.1 19.8 4.6 30 9.2 E 11 13 6 7 1021.4 - 0.0
26/08:00pm 23.7 20.8 4.6 29 9.5 E 9 11 5 6 1021.4 - 0.0
26/07:30pm 24.6 21.0 4.9 28 10.0 E 13 15 7 8 1021.1 - 0.0
26/07:00pm 25.3 21.7 5.0 27 10.3 E 13 17 7 9 1020.8 - 0.0
26/06:30pm 26.1 21.7 4.6 25 10.9 E 17 20 9 11 1020.6 - 0.0
26/06:00pm 26.6 22.1 4.4 24 11.2 E 17 26 9 14 1020.3 1019.7 0.0
26/05:30pm 27.5 22.6 5.1 24 11.6 E 20 28 11 15 1020.2 - 0.0
26/05:00pm 27.9 23.1 5.5 24 11.7 E 20 30 11 16 1020.0 - 0.0
26/04:30pm 28.7 24.7 4.9 22 12.3 ESE 15 28 8 15 1020.0 - 0.0
26/04:00pm 28.5 23.7 5.4 23 12.1 E 20 32 11 17 1020.0 - 0.0
26/03:30pm 28.3 23.4 5.2 23 12.0 E 20 28 11 15 1019.9 - 0.0
26/03:00pm 28.8 24.0 5.6 23 12.1 E 20 32 11 17 1020.1 1019.5 0.0
26/02:30pm 28.6 23.9 6.1 24 11.9 E 20 32 11 17 1020.4 - 0.0
26/02:00pm 28.5 23.4 6.0 24 11.9 ENE 22 33 12 18 1020.7 - 0.0
26/01:30pm 28.2 22.9 5.1 23 12.0 E 22 32 12 17 1021.1 - 0.0
26/01:00pm 28.3 23.0 5.2 23 12.0 E 22 32 12 17 1021.6 - 0.0
26/12:30pm 27.5 22.7 5.7 25 11.4 ENE 20 32 11 17 1022.2 - 0.0
26/12:00pm 27.6 22.7 6.9 27 11.0 E 22 35 12 19 1022.8 1022.1 0.0
26/11:30am 27.2 22.0 7.1 28 10.7 ENE 24 35 13 19 1023.4 - 0.0
26/11:00am 26.1 20.5 7.2 30 10.0 ENE 26 35 14 19 1023.9 - 0.0
26/10:30am 25.6 21.3 7.7 32 9.6 ENE 20 30 11 16 1024.2 - 0.0

Other Formats:

Comma delimited format used in spreadsheet applications
http://www.bom.gov.au/fwo/IDQ60801/IDQ60801.95492.axf

JavaScript Object Notation format (JSON) in row-major order
http://www.bom.gov.au/fwo/IDQ60801/IDQ60801.95492.json